createdAt,value
2018-09-17T00:03:46.131Z,5.50
2018-09-17T00:13:49.819Z,6.13
2018-09-17T00:23:53.488Z,8.77
2018-09-17T00:33:57.083Z,8.43
2018-09-17T00:44:00.657Z,7.20
2018-09-17T00:54:04.375Z,8.30
2018-09-17T01:04:07.946Z,11.57
2018-09-17T01:14:11.490Z,6.13
2018-09-17T01:24:15.190Z,7.37
2018-09-17T01:34:18.753Z,7.93
2018-09-17T01:44:22.839Z,9.07
2018-09-17T01:54:26.454Z,10.13
2018-09-17T02:04:30.034Z,13.53
2018-09-17T02:14:33.844Z,11.03
2018-09-17T02:24:37.613Z,10.20
2018-09-17T02:34:41.883Z,9.25
2018-09-17T02:44:45.569Z,9.07
2018-09-17T02:54:53.587Z,11.57
2018-09-17T03:04:57.249Z,8.87
2018-09-17T03:15:07.163Z,9.90
2018-09-17T03:25:11.359Z,10.75
2018-09-17T03:35:19.928Z,10.43
2018-09-17T03:45:23.521Z,10.17
2018-09-17T03:55:27.116Z,10.45
2018-09-17T04:05:30.714Z,11.30
2018-09-17T04:15:34.371Z,12.57
2018-09-17T04:25:38.007Z,10.00
2018-09-17T04:35:41.547Z,13.37
2018-09-17T04:45:45.221Z,10.93
2018-09-17T04:55:50.828Z,11.20
2018-09-17T05:05:54.378Z,9.43
2018-09-17T05:15:57.969Z,11.07
2018-09-17T05:26:01.672Z,9.13
2018-09-17T05:36:05.268Z,8.87
2018-09-17T05:46:08.887Z,10.93
2018-09-17T05:56:12.467Z,10.63
2018-09-17T06:06:16.045Z,10.10
2018-09-17T06:16:19.638Z,9.70
2018-09-17T06:26:23.877Z,11.30
2018-09-17T06:36:27.425Z,12.20
2018-09-17T06:46:31.023Z,13.03
2018-09-17T06:56:34.709Z,13.20
2018-09-17T07:06:38.298Z,12.50
2018-09-17T07:16:42.001Z,10.93
2018-09-17T07:26:45.599Z,9.70
2018-09-17T07:36:49.156Z,9.10
2018-09-17T07:46:52.732Z,10.23
2018-09-17T07:56:56.296Z,14.50
2018-09-17T08:06:59.886Z,8.47
2018-09-17T08:17:03.979Z,13.00
2018-09-17T08:27:07.565Z,9.07
2018-09-17T08:37:11.140Z,7.90
2018-09-17T08:47:14.972Z,9.13
2018-09-17T08:57:24.080Z,9.63
2018-09-17T09:07:35.803Z,8.87
2018-09-17T09:17:39.472Z,7.90
2018-09-17T09:27:43.087Z,7.10
2018-09-17T09:37:48.105Z,6.40
2018-09-17T09:47:51.741Z,10.87
2018-09-17T09:57:55.300Z,8.87
2018-09-17T10:07:59.000Z,5.47
2018-09-17T10:18:08.056Z,4.93
2018-09-17T10:28:17.528Z,5.37
2018-09-17T10:38:21.921Z,4.47
2018-09-17T10:48:26.197Z,5.30
2018-09-17T10:58:29.835Z,4.23
2018-09-17T11:08:33.462Z,3.57
2018-09-17T11:18:42.861Z,4.33
2018-09-17T11:28:46.591Z,4.00
2018-09-17T11:38:50.204Z,4.20
2018-09-17T11:48:53.817Z,5.67
2018-09-17T11:58:57.389Z,3.52
2018-09-17T12:09:01.644Z,4.53
2018-09-17T12:19:05.513Z,6.73
2018-09-17T12:29:09.327Z,4.57
2018-09-17T12:39:13.251Z,5.30
2018-09-17T12:49:16.897Z,5.10
2018-09-17T12:59:20.466Z,3.33
2018-09-17T13:09:24.129Z,3.00
2018-09-17T13:19:27.843Z,3.53
2018-09-17T13:29:31.480Z,3.60
2018-09-17T13:39:35.164Z,2.10
2018-09-17T13:49:38.878Z,3.37
2018-09-17T13:59:42.476Z,3.40
2018-09-17T14:09:46.258Z,4.43
2018-09-17T14:19:49.846Z,3.47
2018-09-17T14:29:53.773Z,3.33
2018-09-17T14:39:57.701Z,2.17
2018-09-17T14:50:01.369Z,2.53
2018-09-17T15:00:05.031Z,4.30
2018-09-17T15:10:08.732Z,4.43
2018-09-17T15:20:12.398Z,4.20
2018-09-17T15:30:16.627Z,2.27
2018-09-17T15:40:20.310Z,2.13
2018-09-17T15:50:24.160Z,3.70
2018-09-17T16:00:27.812Z,4.03
2018-09-17T16:10:31.548Z,4.57
2018-09-17T16:20:35.159Z,3.37
2018-09-17T16:30:40.450Z,3.33
2018-09-17T16:40:44.096Z,3.67
2018-09-17T16:50:47.697Z,3.33
2018-09-17T17:00:51.302Z,4.60
2018-09-17T17:10:55.056Z,5.67
2018-09-17T17:20:58.587Z,4.17
2018-09-17T17:31:02.311Z,7.53
2018-09-17T17:41:11.808Z,4.30
2018-09-17T17:51:15.453Z,5.17
2018-09-17T18:01:19.154Z,5.93
2018-09-17T18:11:22.783Z,8.57
2018-09-17T18:21:26.412Z,10.53
2018-09-17T18:31:29.924Z,6.87
2018-09-17T18:41:33.926Z,6.30
2018-09-17T18:51:38.267Z,6.10
2018-09-17T19:01:41.873Z,5.83
2018-09-17T19:11:45.603Z,6.07
2018-09-17T19:21:54.651Z,5.33
2018-09-17T19:31:58.209Z,7.57
2018-09-17T19:42:01.797Z,5.17
2018-09-17T19:52:10.778Z,9.13
2018-09-17T20:02:14.343Z,7.67
2018-09-17T20:12:18.185Z,7.93
2018-09-17T20:22:21.756Z,8.93
2018-09-17T20:32:25.371Z,9.03
2018-09-17T20:42:28.941Z,10.32
2018-09-17T20:52:32.557Z,6.90
2018-09-17T21:02:36.198Z,6.60
2018-09-17T21:12:40.453Z,7.53
2018-09-17T21:22:44.029Z,6.13
2018-09-17T21:32:47.645Z,6.12
2018-09-17T21:42:51.264Z,7.37
2018-09-17T21:52:54.884Z,8.10
2018-09-17T22:02:58.461Z,9.00
2018-09-17T22:13:02.131Z,6.10
2018-09-17T22:23:05.831Z,8.07
2018-09-17T22:33:09.854Z,10.77
2018-09-17T22:43:13.454Z,5.33
2018-09-17T22:53:16.992Z,5.60
2018-09-17T23:03:20.635Z,6.55
2018-09-17T23:13:24.249Z,5.53
2018-09-17T23:23:27.946Z,6.73
2018-09-17T23:33:32.274Z,7.50
2018-09-17T23:43:35.930Z,6.60
2018-09-17T23:53:39.526Z,9.00
